createdAt,value
2022-08-08T00:02:02.956Z,1.40
2022-08-08T00:04:19.866Z,1.50
2022-08-08T00:07:09.104Z,1.62
2022-08-08T00:09:39.694Z,1.70
2022-08-08T00:12:12.319Z,1.30
2022-08-08T00:18:02.117Z,1.45
2022-08-08T00:20:19.592Z,1.62
2022-08-08T00:25:25.286Z,1.80
2022-08-08T00:27:59.722Z,1.10
2022-08-08T00:30:36.563Z,1.50
2022-08-08T00:33:10.677Z,1.55
2022-08-08T00:35:55.071Z,1.70
2022-08-08T00:38:54.435Z,1.50
2022-08-08T00:41:21.939Z,1.42
2022-08-08T00:44:07.047Z,1.30
2022-08-08T00:46:57.548Z,1.30
2022-08-08T00:49:33.274Z,1.27
2022-08-08T00:52:22.262Z,1.62
2022-08-08T00:55:11.307Z,1.40
2022-08-08T00:58:05.650Z,1.60
2022-08-08T01:00:50.461Z,1.70
2022-08-08T01:04:01.600Z,1.40
2022-08-08T01:06:27.556Z,1.65
2022-08-08T01:09:36.885Z,1.70
2022-08-08T01:11:52.017Z,1.50
2022-08-08T01:14:54.950Z,1.85
2022-08-08T01:17:34.861Z,1.42
2022-08-08T01:20:06.393Z,1.45
2022-08-08T01:23:03.184Z,1.67
2022-08-08T01:25:54.456Z,1.62
2022-08-08T01:29:02.428Z,1.90
2022-08-08T01:32:06.488Z,1.70
2022-08-08T01:34:57.655Z,1.65
2022-08-08T01:37:58.536Z,1.60
2022-08-08T01:40:32.490Z,2.05
2022-08-08T01:43:19.183Z,1.40
2022-08-08T01:46:27.201Z,1.77
2022-08-08T01:49:23.453Z,1.80
2022-08-08T01:52:42.805Z,1.97
2022-08-08T01:55:25.397Z,1.77
2022-08-08T01:58:11.262Z,1.80
2022-08-08T02:00:34.715Z,2.08
2022-08-08T02:03:54.851Z,1.72
2022-08-08T02:06:07.350Z,2.02
2022-08-08T02:08:47.386Z,1.80
2022-08-08T02:11:53.218Z,1.80
2022-08-08T02:14:28.211Z,2.05
2022-08-08T02:17:10.763Z,1.92
2022-08-08T02:20:09.274Z,1.90
2022-08-08T02:22:54.645Z,1.62
2022-08-08T02:26:00.518Z,1.70
2022-08-08T02:28:51.614Z,2.08
2022-08-08T02:31:58.167Z,1.60
2022-08-08T02:34:14.973Z,1.63
2022-08-08T02:37:51.338Z,1.87
2022-08-08T02:40:00.218Z,1.77
2022-08-08T02:42:41.964Z,1.90
2022-08-08T02:45:27.416Z,1.90
2022-08-08T02:48:26.200Z,2.30
2022-08-08T02:51:30.568Z,2.12
2022-08-08T02:54:27.935Z,2.02
2022-08-08T02:57:17.054Z,2.27
2022-08-08T03:00:31.736Z,1.80
2022-08-08T03:03:02.680Z,1.72
2022-08-08T03:05:55.760Z,2.08
2022-08-08T03:09:01.874Z,2.10
2022-08-08T03:12:05.778Z,2.20
2022-08-08T03:15:58.109Z,1.92
2022-08-08T03:17:34.098Z,2.30
2022-08-08T03:20:07.965Z,2.15
2022-08-08T03:22:57.140Z,2.33
2022-08-08T03:25:36.154Z,2.40
2022-08-08T03:28:09.753Z,2.17
2022-08-08T03:30:39.760Z,2.07
2022-08-08T03:33:56.712Z,2.20
2022-08-08T03:38:58.345Z,2.37
2022-08-08T03:40:56.948Z,2.30
2022-08-08T03:43:38.511Z,2.20
2022-08-08T03:46:09.230Z,2.42
2022-08-08T03:49:56.840Z,2.42
2022-08-08T03:51:11.603Z,2.08
2022-08-08T03:53:47.704Z,2.35
2022-08-08T03:56:31.306Z,2.50
2022-08-08T03:58:53.123Z,2.45
2022-08-08T04:01:24.222Z,2.25
2022-08-08T04:06:29.718Z,2.52
2022-08-08T04:08:57.889Z,2.22
2022-08-08T04:11:27.962Z,2.20
2022-08-08T04:14:03.919Z,2.40
2022-08-08T04:16:38.842Z,2.10
2022-08-08T04:19:02.812Z,2.22
2022-08-08T04:21:41.288Z,2.42
2022-08-08T04:24:05.279Z,2.77
2022-08-08T04:26:45.302Z,2.72
2022-08-08T04:29:06.739Z,2.40
2022-08-08T04:31:59.216Z,2.60
2022-08-08T04:34:09.747Z,2.47
2022-08-08T04:36:41.298Z,2.65
2022-08-08T04:40:03.272Z,2.25
2022-08-08T04:41:42.414Z,2.65
2022-08-08T04:44:11.983Z,2.55
2022-08-08T04:46:42.394Z,2.52
2022-08-08T04:49:13.114Z,2.87
2022-08-08T04:51:57.303Z,2.27
2022-08-08T04:54:39.242Z,2.58
2022-08-08T04:56:46.614Z,2.70
2022-08-08T04:59:16.369Z,2.45
2022-08-08T05:01:48.164Z,2.60
2022-08-08T05:04:17.762Z,2.43
2022-08-08T05:06:50.493Z,2.42
2022-08-08T05:09:19.912Z,2.23
2022-08-08T05:11:56.775Z,2.67
2022-08-08T05:14:21.097Z,2.75
2022-08-08T05:17:00.907Z,2.77
2022-08-08T05:20:12.463Z,2.50
2022-08-08T05:21:58.038Z,2.40
2022-08-08T05:24:28.435Z,2.70
2022-08-08T05:27:00.356Z,3.02
2022-08-08T05:29:30.583Z,2.47
2022-08-08T05:32:04.492Z,2.58
2022-08-08T05:34:37.752Z,3.10
2022-08-08T05:37:17.138Z,2.90
2022-08-08T05:39:44.065Z,2.67
2022-08-08T05:42:15.508Z,2.75
2022-08-08T05:44:49.020Z,2.50
2022-08-08T05:47:22.738Z,2.55
2022-08-08T05:49:55.814Z,2.80
2022-08-08T05:55:02.295Z,2.47
2022-08-08T05:57:57.577Z,2.60
2022-08-08T06:00:19.729Z,2.37
2022-08-08T06:02:55.441Z,3.25
2022-08-08T06:05:34.816Z,3.10
2022-08-08T06:08:09.384Z,2.33
2022-08-08T06:10:38.445Z,2.58
2022-08-08T06:13:09.144Z,2.47
2022-08-08T06:15:51.228Z,2.60
2022-08-08T06:18:20.320Z,2.77
2022-08-08T06:20:45.774Z,2.33
2022-08-08T06:23:17.012Z,2.30
2022-08-08T06:26:38.413Z,2.62
2022-08-08T06:28:29.389Z,2.83
2022-08-08T06:31:05.184Z,2.50
2022-08-08T06:34:26.933Z,2.60
2022-08-08T06:36:13.143Z,2.30
2022-08-08T06:38:47.158Z,2.13
2022-08-08T06:41:19.612Z,2.40
2022-08-08T06:43:57.148Z,2.37
2022-08-08T06:46:26.171Z,2.90
2022-08-08T06:48:57.901Z,2.30
2022-08-08T06:51:31.434Z,1.98
2022-08-08T06:54:03.232Z,2.37
2022-08-08T06:56:39.377Z,2.15
2022-08-08T06:59:12.384Z,2.12
2022-08-08T07:04:47.863Z,1.70
2022-08-08T07:07:25.164Z,2.27
2022-08-08T07:10:08.303Z,2.03
2022-08-08T07:12:47.447Z,2.50
2022-08-08T07:15:31.853Z,2.22
2022-08-08T07:18:00.784Z,2.17
2022-08-08T07:20:26.604Z,1.92
2022-08-08T07:23:23.403Z,1.95
2022-08-08T07:25:54.497Z,2.40
2022-08-08T07:28:31.771Z,2.00
2022-08-08T07:31:00.059Z,2.17
2022-08-08T07:33:38.041Z,2.25
2022-08-08T07:36:05.241Z,2.15
2022-08-08T07:38:38.427Z,2.10
2022-08-08T07:41:16.713Z,2.00
2022-08-08T07:43:53.492Z,2.17
2022-08-08T07:46:23.616Z,2.08
2022-08-08T07:48:47.846Z,1.93
2022-08-08T07:51:23.683Z,3.17
2022-08-08T07:54:27.783Z,1.67
2022-08-08T07:57:08.806Z,1.60
2022-08-08T07:59:39.814Z,1.98
2022-08-08T08:02:36.671Z,1.98
2022-08-08T08:04:49.430Z,1.90
2022-08-08T08:10:38.539Z,2.33
2022-08-08T08:13:25.875Z,1.75
2022-08-08T08:16:04.702Z,2.07
2022-08-08T08:18:52.211Z,2.10
2022-08-08T08:21:14.629Z,1.57
2022-08-08T08:23:43.369Z,1.90
2022-08-08T08:26:27.293Z,1.90
2022-08-08T08:28:49.871Z,1.82
2022-08-08T08:31:20.829Z,2.00
2022-08-08T08:33:50.718Z,1.60
2022-08-08T08:36:22.310Z,2.05
2022-08-08T08:38:54.550Z,1.70
2022-08-08T08:41:31.153Z,1.92
2022-08-08T08:44:13.955Z,1.87
2022-08-08T08:46:33.203Z,1.70
2022-08-08T08:49:04.773Z,1.67
2022-08-08T08:54:13.090Z,1.67
2022-08-08T08:56:43.455Z,1.60
2022-08-08T08:59:23.561Z,1.65
2022-08-08T09:01:56.571Z,1.70
2022-08-08T09:04:39.615Z,2.00
2022-08-08T09:07:12.146Z,2.00
2022-08-08T09:09:47.400Z,1.45
2022-08-08T09:12:11.679Z,1.85
2022-08-08T09:14:46.987Z,1.75
2022-08-08T09:17:23.722Z,2.10
2022-08-08T09:22:00.702Z,1.70
2022-08-08T09:22:31.590Z,1.85
2022-08-08T09:25:01.342Z,1.98
2022-08-08T09:27:56.811Z,1.50
2022-08-08T09:30:06.528Z,1.70
2022-08-08T09:33:54.729Z,1.42
2022-08-08T09:35:32.286Z,1.85
2022-08-08T09:38:06.263Z,1.70
2022-08-08T09:40:46.497Z,1.70
2022-08-08T09:43:16.654Z,1.60
2022-08-08T09:45:55.246Z,1.90
2022-08-08T09:48:32.435Z,1.70
2022-08-08T09:50:58.086Z,1.60
2022-08-08T09:54:01.335Z,1.92
2022-08-08T09:56:06.910Z,1.20
2022-08-08T09:58:44.600Z,1.82
2022-08-08T10:01:14.224Z,2.47
2022-08-08T10:03:46.971Z,1.90
2022-08-08T10:06:21.565Z,1.62
2022-08-08T10:08:54.618Z,1.50
2022-08-08T10:12:27.102Z,1.80
2022-08-08T10:14:01.999Z,1.57
2022-08-08T10:16:41.136Z,1.80
2022-08-08T10:19:12.154Z,1.70
2022-08-08T10:21:50.137Z,2.17
2022-08-08T10:24:29.195Z,1.65
2022-08-08T10:26:59.866Z,1.50
2022-08-08T10:29:58.285Z,1.75
2022-08-08T10:32:40.177Z,1.80
2022-08-08T10:36:01.990Z,1.60
2022-08-08T10:37:54.197Z,1.60
2022-08-08T10:40:25.919Z,1.72
2022-08-08T10:43:00.138Z,1.50
2022-08-08T10:45:41.165Z,1.52
2022-08-08T10:48:03.123Z,1.65
2022-08-08T10:50:37.645Z,1.95
2022-08-08T10:53:12.496Z,1.70
2022-08-08T10:55:46.462Z,1.57
2022-08-08T10:58:13.740Z,1.80
2022-08-08T11:00:53.063Z,1.50
2022-08-08T11:03:37.096Z,2.22
2022-08-08T11:06:00.442Z,1.75
2022-08-08T11:08:38.332Z,1.90
2022-08-08T11:11:32.337Z,1.52
2022-08-08T11:13:51.985Z,1.50
2022-08-08T11:16:32.400Z,1.87
2022-08-08T11:18:58.690Z,1.60
2022-08-08T11:21:35.363Z,1.60
2022-08-08T11:24:05.742Z,1.47
2022-08-08T11:26:53.899Z,1.75
2022-08-08T11:29:11.415Z,1.60
2022-08-08T11:31:48.208Z,1.57
2022-08-08T11:34:23.559Z,2.20
2022-08-08T11:36:51.104Z,1.80
2022-08-08T11:39:21.177Z,1.77
2022-08-08T11:41:52.051Z,1.70
2022-08-08T11:44:28.946Z,1.70
2022-08-08T11:46:55.343Z,1.55
2022-08-08T11:49:27.749Z,1.80
2022-08-08T11:51:57.728Z,1.60
2022-08-08T11:54:38.000Z,1.70
2022-08-08T11:57:27.212Z,1.50
2022-08-08T12:02:53.739Z,1.50
2022-08-08T12:05:38.978Z,1.60
2022-08-08T12:08:10.510Z,1.45
2022-08-08T12:10:53.281Z,1.80
2022-08-08T12:13:33.323Z,1.70
2022-08-08T12:16:09.327Z,1.60
2022-08-08T12:18:49.896Z,1.98
2022-08-08T12:21:59.245Z,1.87
2022-08-08T12:24:12.913Z,1.62
2022-08-08T12:26:58.373Z,1.90
2022-08-08T12:29:45.095Z,1.65
2022-08-08T12:32:31.318Z,1.80
2022-08-08T12:34:57.494Z,1.60
2022-08-08T12:37:40.224Z,1.77
2022-08-08T12:40:05.607Z,1.60
2022-08-08T12:42:47.850Z,1.70
2022-08-08T12:45:54.584Z,1.50
2022-08-08T12:48:04.811Z,1.40
2022-08-08T12:50:15.078Z,1.57
2022-08-08T12:52:47.754Z,1.30
2022-08-08T12:55:35.603Z,1.40
2022-08-08T12:57:49.863Z,1.57
2022-08-08T13:00:23.382Z,1.50
2022-08-08T13:02:58.165Z,1.70
2022-08-08T13:06:03.612Z,2.03
2022-08-08T13:08:03.442Z,1.60
2022-08-08T13:10:36.221Z,1.50
2022-08-08T13:13:08.211Z,1.70
2022-08-08T13:15:37.903Z,1.50
2022-08-08T13:18:13.574Z,1.80
2022-08-08T13:20:48.299Z,1.60
2022-08-08T13:23:35.250Z,1.80
2022-08-08T13:25:59.414Z,1.60
2022-08-08T13:28:26.373Z,1.57
2022-08-08T13:30:57.642Z,1.60
2022-08-08T13:33:27.228Z,1.50
2022-08-08T13:36:00.491Z,1.53
2022-08-08T13:38:31.955Z,1.60
2022-08-08T13:41:01.544Z,1.92
2022-08-08T13:43:31.618Z,1.70
2022-08-08T13:46:27.294Z,1.60
2022-08-08T13:50:32.187Z,1.70
2022-08-08T13:51:33.661Z,1.40
2022-08-08T13:54:02.031Z,1.47
2022-08-08T13:56:44.657Z,1.50
2022-08-08T13:59:07.944Z,1.50
2022-08-08T14:01:53.065Z,1.60
2022-08-08T14:04:09.202Z,1.40
2022-08-08T14:06:43.322Z,1.82
2022-08-08T14:09:24.488Z,1.70
2022-08-08T14:11:48.856Z,1.45
2022-08-08T14:14:21.231Z,1.70
2022-08-08T14:19:54.115Z,1.45
2022-08-08T14:21:53.829Z,1.47
2022-08-08T14:24:35.822Z,1.30
2022-08-08T14:27:07.383Z,1.57
2022-08-08T14:29:39.358Z,1.37
2022-08-08T14:32:16.036Z,1.50
2022-08-08T14:37:12.882Z,1.67
2022-08-08T14:39:48.524Z,1.40
2022-08-08T14:42:16.883Z,1.52
2022-08-08T14:44:55.308Z,1.25
2022-08-08T14:47:25.787Z,1.62
2022-08-08T14:50:10.723Z,1.42
2022-08-08T14:52:47.068Z,1.60
2022-08-08T14:55:22.194Z,1.50
2022-08-08T15:00:20.281Z,1.30
2022-08-08T15:02:58.527Z,1.20
2022-08-08T15:05:42.804Z,1.32
2022-08-08T15:07:59.925Z,1.22
2022-08-08T15:10:28.905Z,1.70
2022-08-08T15:12:58.608Z,1.37
2022-08-08T15:16:01.669Z,1.40
2022-08-08T15:17:59.714Z,1.50
2022-08-08T15:20:29.362Z,1.32
2022-08-08T15:23:01.673Z,1.30
2022-08-08T15:25:33.079Z,1.40
2022-08-08T15:28:32.390Z,1.50
2022-08-08T15:30:34.240Z,1.37
2022-08-08T15:33:03.806Z,1.50
2022-08-08T15:35:39.083Z,1.20
2022-08-08T15:38:12.462Z,1.10
2022-08-08T15:40:38.604Z,1.20
2022-08-08T15:43:35.383Z,1.40
2022-08-08T15:45:41.785Z,1.40
2022-08-08T15:48:16.028Z,1.40
2022-08-08T15:51:06.407Z,1.40
2022-08-08T15:53:49.565Z,1.15
2022-08-08T15:56:12.308Z,1.07
2022-08-08T15:58:38.999Z,1.43
2022-08-08T16:03:39.211Z,1.30
2022-08-08T16:06:13.626Z,1.30
2022-08-08T16:08:40.363Z,1.40
2022-08-08T16:13:11.270Z,1.10
2022-08-08T16:13:43.817Z,1.57
2022-08-08T16:16:18.564Z,1.42
2022-08-08T16:21:25.876Z,1.22
2022-08-08T16:23:49.077Z,1.00
2022-08-08T16:26:22.992Z,1.30
2022-08-08T16:28:51.382Z,1.37
2022-08-08T16:31:21.681Z,1.12
2022-08-08T16:33:58.221Z,1.23
2022-08-08T16:36:27.980Z,1.60
2022-08-08T16:41:26.326Z,1.20
2022-08-08T16:43:57.742Z,1.35
2022-08-08T16:46:44.109Z,0.93
2022-08-08T16:49:01.314Z,1.35
2022-08-08T16:54:59.759Z,1.17
2022-08-08T16:55:00.531Z,1.30
2022-08-08T16:56:34.946Z,1.30
2022-08-08T16:59:05.325Z,1.20
2022-08-08T17:01:39.643Z,1.30
2022-08-08T17:04:07.476Z,1.20
2022-08-08T17:06:43.694Z,1.07
2022-08-08T17:09:15.236Z,1.65
2022-08-08T17:11:48.764Z,1.13
2022-08-08T17:14:17.830Z,0.77
2022-08-08T17:16:41.408Z,0.95
2022-08-08T17:19:12.527Z,1.12
2022-08-08T17:21:42.833Z,1.22
2022-08-08T17:24:27.451Z,1.35
2022-08-08T17:29:15.127Z,1.15
2022-08-08T17:31:46.843Z,1.33
2022-08-08T17:34:36.562Z,1.35
2022-08-08T17:37:03.320Z,0.90
2022-08-08T17:39:45.806Z,1.50
2022-08-08T17:41:58.591Z,1.30
2022-08-08T17:44:21.206Z,1.40
2022-08-08T17:46:54.006Z,1.27
2022-08-08T17:49:28.766Z,1.10
2022-08-08T17:51:56.711Z,1.32
2022-08-08T17:54:29.206Z,1.45
2022-08-08T17:56:59.057Z,1.40
2022-08-08T17:59:30.440Z,1.65
2022-08-08T18:02:06.537Z,1.30
2022-08-08T18:04:42.558Z,1.20
2022-08-08T18:08:01.929Z,1.50
2022-08-08T18:09:43.356Z,1.10
2022-08-08T18:12:14.410Z,1.15
2022-08-08T18:14:47.250Z,1.25
2022-08-08T18:17:28.592Z,1.37
2022-08-08T18:20:44.383Z,1.40
2022-08-08T18:22:49.936Z,1.40
2022-08-08T18:24:55.749Z,1.40
2022-08-08T18:27:25.543Z,1.27
2022-08-08T18:29:56.576Z,1.10
2022-08-08T18:32:26.111Z,1.10
2022-08-08T18:34:57.544Z,1.02
2022-08-08T18:37:34.689Z,1.60
2022-08-08T18:39:58.425Z,1.10
2022-08-08T18:42:29.924Z,1.00
2022-08-08T18:44:59.427Z,1.90
2022-08-08T18:47:31.408Z,1.17
2022-08-08T18:50:02.730Z,1.30
2022-08-08T18:52:36.850Z,1.17
2022-08-08T18:55:10.271Z,1.30
2022-08-08T18:57:45.031Z,1.20
2022-08-08T19:00:20.530Z,1.42
2022-08-08T19:02:55.825Z,1.40
2022-08-08T19:05:31.935Z,1.60
2022-08-08T19:07:56.741Z,1.40
2022-08-08T19:10:26.559Z,1.40
2022-08-08T19:12:56.096Z,1.67
2022-08-08T19:15:33.940Z,2.25
2022-08-08T19:18:33.391Z,2.00
2022-08-08T19:20:27.857Z,2.25
2022-08-08T19:22:57.350Z,2.30
2022-08-08T19:26:01.731Z,2.37
2022-08-08T19:28:00.017Z,2.33
2022-08-08T19:30:29.964Z,2.33
2022-08-08T19:33:00.640Z,2.80
2022-08-08T19:35:45.288Z,3.60
2022-08-08T19:38:02.583Z,3.25
2022-08-08T19:40:32.994Z,2.50
2022-08-08T19:43:02.483Z,2.90
2022-08-08T19:45:58.861Z,2.70
2022-08-08T19:48:03.310Z,2.73
2022-08-08T19:50:33.494Z,2.72
2022-08-08T19:53:03.143Z,2.47
2022-08-08T19:55:35.991Z,2.90
2022-08-08T19:58:07.440Z,2.90
2022-08-08T20:00:37.835Z,2.70
2022-08-08T20:03:15.134Z,3.10
2022-08-08T20:06:15.656Z,3.15
2022-08-08T20:08:29.288Z,3.08
2022-08-08T20:10:42.957Z,3.15
2022-08-08T20:14:10.355Z,2.85
2022-08-08T20:15:52.674Z,3.30
2022-08-08T20:18:15.511Z,3.05
2022-08-08T20:20:45.875Z,3.08
2022-08-08T20:23:15.977Z,2.77
2022-08-08T20:25:46.198Z,2.77
2022-08-08T20:28:19.996Z,3.50
2022-08-08T20:30:55.721Z,2.90
2022-08-08T20:35:57.497Z,2.90
2022-08-08T20:38:19.922Z,2.98
2022-08-08T20:40:52.406Z,3.23
2022-08-08T20:43:43.511Z,3.02
2022-08-08T20:45:57.852Z,2.50
2022-08-08T20:48:26.140Z,2.80
2022-08-08T20:53:59.233Z,2.67
2022-08-08T20:55:59.599Z,2.27
2022-08-08T20:58:30.710Z,2.63
2022-08-08T21:01:00.624Z,2.37
2022-08-08T21:03:30.333Z,2.65
2022-08-08T21:05:59.932Z,2.77
2022-08-08T21:08:36.235Z,2.75
2022-08-08T21:11:00.853Z,2.80
2022-08-08T21:13:40.671Z,3.05
2022-08-08T21:16:06.030Z,3.05
2022-08-08T21:18:32.617Z,2.72
2022-08-08T21:21:02.867Z,3.08
2022-08-08T21:24:02.568Z,3.33
2022-08-08T21:26:03.683Z,2.85
2022-08-08T21:28:33.598Z,2.97
2022-08-08T21:31:22.569Z,2.57
2022-08-08T21:33:38.456Z,3.15
2022-08-08T21:36:21.019Z,3.20
2022-08-08T21:38:52.477Z,2.93
2022-08-08T21:41:38.212Z,2.90
2022-08-08T21:43:54.065Z,3.27
2022-08-08T21:48:05.598Z,3.37
2022-08-08T21:48:57.243Z,2.65
2022-08-08T21:54:16.857Z,3.25
2022-08-08T21:54:34.598Z,2.75
2022-08-08T21:56:40.131Z,3.00
2022-08-08T21:59:02.561Z,2.83
2022-08-08T22:01:40.428Z,2.75
2022-08-08T22:04:06.680Z,3.10
2022-08-08T22:06:37.866Z,3.37
2022-08-08T22:09:08.445Z,3.33
2022-08-08T22:11:59.441Z,3.35
2022-08-08T22:14:10.338Z,3.27
2022-08-08T22:16:41.591Z,3.37
2022-08-08T22:19:16.338Z,3.00
2022-08-08T22:21:42.099Z,3.47
2022-08-08T22:24:11.803Z,3.58
2022-08-08T22:27:01.435Z,3.15
2022-08-08T22:29:57.251Z,3.40
2022-08-08T22:32:02.324Z,3.77
2022-08-08T22:34:15.620Z,3.53
2022-08-08T22:36:45.193Z,3.30
2022-08-08T22:39:19.151Z,3.25
2022-08-08T22:41:49.296Z,3.47
2022-08-08T22:44:18.396Z,3.33
2022-08-08T22:46:47.846Z,3.72
2022-08-08T22:49:20.230Z,3.35
2022-08-08T22:51:49.888Z,3.47
2022-08-08T22:54:31.104Z,3.60
2022-08-08T22:56:52.418Z,3.22
2022-08-08T22:59:21.995Z,3.10
2022-08-08T23:02:03.002Z,3.27
2022-08-08T23:04:31.927Z,3.27
2022-08-08T23:07:03.046Z,3.20
2022-08-08T23:09:30.608Z,2.80
2022-08-08T23:12:28.101Z,2.90
2022-08-08T23:14:28.170Z,2.50
2022-08-08T23:16:59.646Z,2.50
2022-08-08T23:19:30.795Z,2.10
2022-08-08T23:22:06.785Z,2.17
2022-08-08T23:24:41.241Z,2.20
2022-08-08T23:27:17.410Z,2.12
2022-08-08T23:29:55.104Z,2.30
2022-08-08T23:32:17.151Z,2.05
2022-08-08T23:34:49.730Z,2.47
2022-08-08T23:37:24.473Z,2.20
2022-08-08T23:39:57.828Z,2.60
2022-08-08T23:42:21.841Z,2.50
2022-08-08T23:44:52.107Z,2.45
2022-08-08T23:49:08.765Z,2.17
2022-08-08T23:50:01.044Z,2.40
2022-08-08T23:52:27.597Z,2.30
2022-08-08T23:55:07.450Z,2.30
2022-08-08T23:57:39.094Z,2.35
